createdAt,value
2023-02-02T00:01:09.784Z,102132.28
2023-02-02T00:03:37.695Z,102134.47
2023-02-02T00:06:04.513Z,102131.97
2023-02-02T00:08:31.150Z,102132.28
2023-02-02T00:10:57.624Z,102133.59
2023-02-02T00:13:24.122Z,102131.72
2023-02-02T00:15:53.023Z,102133.09
2023-02-02T00:18:19.496Z,102134.19
2023-02-02T00:20:49.223Z,102143.06
2023-02-02T00:23:17.378Z,102137.47
2023-02-02T00:25:43.901Z,102146.38
2023-02-02T00:28:10.357Z,102144.25
2023-02-02T00:30:36.833Z,102147.22
2023-02-02T00:33:03.371Z,102149.13
2023-02-02T00:35:29.946Z,102146.72
2023-02-02T00:37:56.418Z,102130.31
2023-02-02T00:40:22.921Z,102134.38
2023-02-02T00:42:50.444Z,102137.66
2023-02-02T00:45:17.132Z,102139.88
2023-02-02T00:47:52.423Z,102136.06
2023-02-02T00:50:20.813Z,102143.66
2023-02-02T00:52:48.537Z,102145.81
2023-02-02T00:55:16.507Z,102139.13
2023-02-02T00:57:44.403Z,102141.81
2023-02-02T01:00:17.039Z,102147.50
2023-02-02T01:02:43.597Z,102144.31
2023-02-02T01:05:11.894Z,102142.69
2023-02-02T01:07:38.914Z,102140.50
2023-02-02T01:10:08.763Z,102147.00
2023-02-02T01:12:35.294Z,102151.59
2023-02-02T01:15:02.779Z,102157.78
2023-02-02T01:17:29.286Z,102151.34
2023-02-02T01:19:55.770Z,102151.13
2023-02-02T01:22:22.223Z,102150.34
2023-02-02T01:24:48.649Z,102151.13
2023-02-02T01:27:15.191Z,102147.13
2023-02-02T01:29:41.760Z,102156.06
2023-02-02T01:32:08.336Z,102160.97
2023-02-02T01:34:35.020Z,102158.56
2023-02-02T01:37:01.642Z,102156.41
2023-02-02T01:39:28.101Z,102159.69
2023-02-02T01:41:54.549Z,102165.38
2023-02-02T01:44:54.935Z,102162.91
2023-02-02T01:47:27.075Z,102158.31
2023-02-02T01:49:55.377Z,102159.69
2023-02-02T01:52:24.196Z,102164.28
2023-02-02T01:54:56.305Z,102158.09
2023-02-02T01:57:42.051Z,102155.41
2023-02-02T02:00:12.373Z,102153.28
2023-02-02T02:02:39.952Z,102158.94
2023-02-02T02:05:07.833Z,102159.75
2023-02-02T02:07:34.527Z,102157.59
2023-02-02T02:10:01.054Z,102164.81
2023-02-02T02:12:27.510Z,102155.09
2023-02-02T02:15:12.571Z,102159.41
2023-02-02T02:18:03.685Z,102155.91
2023-02-02T02:21:10.132Z,102154.47
2023-02-02T02:24:29.237Z,102152.00
2023-02-02T02:27:14.300Z,102147.19
2023-02-02T02:30:16.669Z,102146.16
2023-02-02T02:33:14.680Z,102142.28
2023-02-02T02:35:59.417Z,102139.84
2023-02-02T02:39:03.033Z,102146.59
2023-02-02T02:41:34.741Z,102148.50
2023-02-02T02:44:12.315Z,102145.78
2023-02-02T02:46:39.138Z,102144.47
2023-02-02T02:49:09.693Z,102147.69
2023-02-02T02:51:39.175Z,102140.13
2023-02-02T02:54:06.485Z,102141.16
2023-02-02T02:56:41.890Z,102137.06
2023-02-02T02:59:38.057Z,102119.50
2023-02-02T03:02:22.451Z,102112.47
2023-02-02T03:05:29.069Z,102120.81
2023-02-02T03:08:11.270Z,102120.03
2023-02-02T03:10:40.930Z,102117.81
2023-02-02T03:13:12.142Z,102114.63
2023-02-02T03:15:43.446Z,102117.31
2023-02-02T03:18:12.696Z,102122.94
2023-02-02T03:20:39.309Z,102131.81
2023-02-02T03:23:05.820Z,102133.44
2023-02-02T03:25:32.323Z,102137.22
2023-02-02T03:27:58.908Z,102144.22
2023-02-02T03:30:25.695Z,102146.66
2023-02-02T03:32:52.937Z,102150.97
2023-02-02T03:35:22.895Z,102151.47
2023-02-02T03:37:49.663Z,102164.44
2023-02-02T03:40:16.386Z,102165.47
2023-02-02T03:42:42.853Z,102155.97
2023-02-02T03:45:10.245Z,102157.59
2023-02-02T03:47:36.832Z,102158.41
2023-02-02T03:50:03.449Z,102163.81
2023-02-02T03:52:29.881Z,102158.41
2023-02-02T03:54:56.415Z,102163.00
2023-02-02T03:57:22.983Z,102151.63
2023-02-02T03:59:49.532Z,102150.22
2023-02-02T04:02:16.042Z,102148.31
2023-02-02T04:04:42.475Z,102162.31
2023-02-02T04:07:08.972Z,102162.31
2023-02-02T04:09:35.470Z,102160.97
2023-02-02T04:12:01.969Z,102151.53
2023-02-02T04:14:28.486Z,102148.25
2023-02-02T04:16:54.962Z,102150.16
2023-02-02T04:19:21.430Z,102156.38
2023-02-02T04:21:47.926Z,102142.06
2023-02-02T04:24:15.038Z,102144.47
2023-02-02T04:26:42.481Z,102147.69
2023-02-02T04:29:09.333Z,102142.78
2023-02-02T04:31:35.888Z,102157.38
2023-02-02T04:34:02.973Z,102155.47
2023-02-02T04:36:29.667Z,102151.19
2023-02-02T04:38:56.374Z,102155.19
2023-02-02T04:41:23.405Z,102148.72
2023-02-02T04:43:49.940Z,102159.50
2023-02-02T04:46:16.591Z,102163.53
2023-02-02T04:48:43.172Z,102151.91
2023-02-02T04:51:13.312Z,102145.72
2023-02-02T04:53:41.042Z,102155.13
2023-02-02T04:56:09.832Z,102156.72
2023-02-02T04:58:36.416Z,102159.41
2023-02-02T05:01:09.247Z,102156.72
2023-02-02T05:03:35.738Z,102159.72
2023-02-02T05:06:03.872Z,102172.63
2023-02-02T05:08:30.353Z,102175.56
2023-02-02T05:10:56.931Z,102175.56
2023-02-02T05:13:23.495Z,102184.97
2023-02-02T05:15:49.986Z,102179.28
2023-02-02T05:18:16.586Z,102167.38
2023-02-02T05:20:43.055Z,102186.28
2023-02-02T05:23:09.553Z,102187.88
2023-02-02T05:25:35.990Z,102189.22
2023-02-02T05:28:02.453Z,102187.31
2023-02-02T05:30:28.947Z,102175.41
2023-02-02T05:32:55.467Z,102175.91
2023-02-02T05:35:22.087Z,102174.31
2023-02-02T05:37:48.635Z,102191.63
2023-02-02T05:40:15.191Z,102180.53
2023-02-02T05:42:41.631Z,102173.50
2023-02-02T05:45:08.570Z,102178.91
2023-02-02T05:47:35.741Z,102177.81
2023-02-02T05:50:02.947Z,102177.00
2023-02-02T05:52:34.644Z,102172.41
2023-02-02T05:55:01.216Z,102178.63
2023-02-02T05:57:28.052Z,102173.22
2023-02-02T05:59:54.992Z,102186.72
2023-02-02T06:02:21.501Z,102175.91
2023-02-02T06:04:48.030Z,102179.72
2023-02-02T06:07:14.512Z,102198.63
2023-02-02T06:09:40.960Z,102192.72
2023-02-02T06:12:07.621Z,102196.22
2023-02-02T06:14:34.131Z,102187.63
2023-02-02T06:17:00.605Z,102193.81
2023-02-02T06:19:27.068Z,102193.00
2023-02-02T06:21:53.557Z,102198.19
2023-02-02T06:24:20.005Z,102188.78
2023-02-02T06:26:46.473Z,102189.06
2023-02-02T06:29:13.883Z,102205.28
2023-02-02T06:31:40.557Z,102207.16
2023-02-02T06:34:07.129Z,102205.03
2023-02-02T06:36:33.610Z,102204.03
2023-02-02T06:39:00.115Z,102211.81
2023-02-02T06:41:26.617Z,102214.81
2023-02-02T06:43:53.119Z,102215.13
2023-02-02T06:46:19.689Z,102218.91
2023-02-02T06:48:46.266Z,102217.28
2023-02-02T06:51:12.791Z,102218.97
2023-02-02T06:53:39.312Z,102228.66
2023-02-02T06:56:07.680Z,102223.84
2023-02-02T06:58:34.787Z,102231.66
2023-02-02T07:01:05.703Z,102235.16
2023-02-02T07:03:32.724Z,102235.16
2023-02-02T07:05:59.257Z,102236.03
2023-02-02T07:08:25.802Z,102240.59
2023-02-02T07:11:12.894Z,102227.09
2023-02-02T07:13:38.805Z,102226.31
2023-02-02T07:16:05.764Z,102223.09
2023-02-02T07:18:32.355Z,102222.00
2023-02-02T07:21:00.407Z,102222.31
2023-02-02T07:23:30.602Z,102232.28
2023-02-02T07:26:07.969Z,102243.09
2023-02-02T07:28:35.438Z,102238.00
2023-02-02T07:31:13.326Z,102251.47
2023-02-02T07:33:41.783Z,102242.59
2023-02-02T07:36:08.365Z,102253.94
2023-02-02T07:38:34.893Z,102261.22
2023-02-02T07:41:01.620Z,102258.53
2023-02-02T07:43:28.174Z,102266.63
2023-02-02T07:45:55.519Z,102258.81
2023-02-02T07:48:21.994Z,102256.94
2023-02-02T07:50:48.456Z,102270.44
2023-02-02T07:53:14.989Z,102270.66
2023-02-02T07:55:41.477Z,102277.97
2023-02-02T07:58:10.211Z,102274.97
2023-02-02T08:00:36.859Z,102277.97
2023-02-02T08:03:03.399Z,102271.47
2023-02-02T08:05:29.953Z,102289.78
2023-02-02T08:07:56.419Z,102279.78
2023-02-02T08:10:22.880Z,102278.69
2023-02-02T08:12:49.335Z,102289.75
2023-02-02T08:15:15.967Z,102292.66
2023-02-02T08:17:46.027Z,102297.47
2023-02-02T08:20:13.651Z,102293.41
2023-02-02T08:22:40.113Z,102293.13
2023-02-02T08:25:07.140Z,102302.47
2023-02-02T08:27:33.625Z,102298.38
2023-02-02T08:30:00.235Z,102306.19
2023-02-02T08:32:26.730Z,102306.16
2023-02-02T08:34:53.669Z,102310.75
2023-02-02T08:37:20.134Z,102318.34
2023-02-02T08:39:46.636Z,102315.09
2023-02-02T08:42:13.113Z,102325.09
2023-02-02T08:45:59.573Z,102328.31
2023-02-02T08:47:29.393Z,102331.00
2023-02-02T08:49:56.069Z,102334.25
2023-02-02T08:52:24.806Z,102335.56
2023-02-02T08:54:52.153Z,102337.16
2023-02-02T08:57:18.651Z,102332.56
2023-02-02T08:59:45.116Z,102344.97
2023-02-02T09:02:13.780Z,102345.22
2023-02-02T09:04:45.511Z,102344.41
2023-02-02T09:07:12.054Z,102349.53
2023-02-02T09:09:38.494Z,102341.41
2023-02-02T09:12:04.997Z,102348.66
2023-02-02T09:14:31.560Z,102354.28
2023-02-02T09:16:58.147Z,102347.50
2023-02-02T09:19:24.728Z,102356.09
2023-02-02T09:21:51.285Z,102360.72
2023-02-02T09:24:17.821Z,102362.59
2023-02-02T09:26:45.144Z,102373.63
2023-02-02T09:29:13.500Z,102376.88
2023-02-02T09:31:40.119Z,102374.38
2023-02-02T09:34:09.246Z,102376.00
2023-02-02T09:36:37.234Z,102385.94
2023-02-02T09:39:05.423Z,102386.44
2023-02-02T09:41:37.865Z,102393.41
2023-02-02T09:44:14.362Z,102385.00
2023-02-02T09:47:10.072Z,102396.91
2023-02-02T09:49:54.701Z,102393.13
2023-02-02T09:52:42.227Z,102397.94
2023-02-02T09:55:30.495Z,102399.84
2023-02-02T09:58:28.646Z,102404.13
2023-02-02T10:01:07.389Z,102400.63
2023-02-02T10:04:01.241Z,102418.53
2023-02-02T10:06:38.595Z,102406.91
2023-02-02T10:09:32.800Z,102415.59
2023-02-02T10:12:14.322Z,102408.81
2023-02-02T10:14:46.539Z,102414.72
2023-02-02T10:17:44.155Z,102420.66
2023-02-02T10:20:23.188Z,102427.38
2023-02-02T10:22:50.639Z,102423.31
2023-02-02T10:25:17.855Z,102422.41
2023-02-02T10:28:03.042Z,102426.50
2023-02-02T10:30:46.743Z,102434.84
2023-02-02T10:33:25.923Z,102435.63
2023-02-02T10:36:03.762Z,102434.28
2023-02-02T10:38:46.314Z,102436.19
2023-02-02T10:41:23.189Z,102428.31
2023-02-02T10:44:19.259Z,102443.19
2023-02-02T10:46:51.391Z,102441.00
2023-02-02T10:49:32.576Z,102445.09
2023-02-02T10:52:11.317Z,102443.13
2023-02-02T10:55:15.553Z,102452.34
2023-02-02T10:58:01.205Z,102450.75
2023-02-02T11:00:40.493Z,102446.94
2023-02-02T11:03:10.380Z,102452.91
2023-02-02T11:05:55.175Z,102444.78
2023-02-02T11:08:43.071Z,102447.50
2023-02-02T11:11:22.449Z,102448.84
2023-02-02T11:13:55.443Z,102456.34
2023-02-02T11:16:38.858Z,102450.41
2023-02-02T11:19:29.960Z,102435.41
2023-02-02T11:21:59.603Z,102434.47
2023-02-02T11:24:45.118Z,102436.59
2023-02-02T11:27:24.423Z,102439.00
2023-02-02T11:30:01.300Z,102439.28
2023-02-02T11:32:34.386Z,102438.78
2023-02-02T11:35:03.986Z,102430.06
2023-02-02T11:37:32.083Z,102437.09
2023-02-02T11:40:20.865Z,102427.88
2023-02-02T11:42:48.324Z,102439.22
2023-02-02T11:45:20.788Z,102439.53
2023-02-02T11:47:47.267Z,102439.22
2023-02-02T11:50:26.356Z,102445.75
2023-02-02T11:52:53.423Z,102447.91
2023-02-02T11:55:28.187Z,102435.19
2023-02-02T11:58:28.885Z,102450.56
2023-02-02T12:00:57.096Z,102435.72
2023-02-02T12:03:48.823Z,102435.44
2023-02-02T12:06:24.509Z,102430.53
2023-02-02T12:08:55.434Z,102436.22
2023-02-02T12:11:40.575Z,102440.84
2023-02-02T12:14:25.787Z,102426.81
2023-02-02T12:16:59.241Z,102431.69
2023-02-02T12:19:50.552Z,102433.28
2023-02-02T12:22:29.069Z,102436.59
2023-02-02T12:25:09.288Z,102435.47
2023-02-02T12:27:35.834Z,102430.66
2023-02-02T12:30:22.561Z,102441.50
2023-02-02T12:32:56.102Z,102433.97
2023-02-02T12:35:37.565Z,102432.06
2023-02-02T12:38:13.226Z,102433.44
2023-02-02T12:40:58.353Z,102426.13
2023-02-02T12:43:39.796Z,102430.53
2023-02-02T12:46:11.603Z,102420.28
2023-02-02T12:48:43.411Z,102431.75
2023-02-02T12:51:20.100Z,102423.97
2023-02-02T12:54:33.014Z,102434.31
2023-02-02T12:57:07.811Z,102429.06
2023-02-02T13:00:24.402Z,102432.91
2023-02-02T13:02:59.870Z,102429.47
2023-02-02T13:08:30.281Z,102419.81
2023-02-02T13:11:29.911Z,102430.09
2023-02-02T13:14:08.366Z,102421.19
2023-02-02T13:16:40.318Z,102417.16
2023-02-02T13:19:34.404Z,102413.13
2023-02-02T13:22:03.851Z,102412.56
2023-02-02T13:24:34.559Z,102418.50
2023-02-02T13:27:05.813Z,102422.84
2023-02-02T13:29:48.231Z,102419.63
2023-02-02T13:32:23.295Z,102421.53
2023-02-02T13:34:54.978Z,102429.41
2023-02-02T13:37:37.544Z,102431.88
2023-02-02T13:40:25.352Z,102427.84
2023-02-02T13:43:22.929Z,102437.56
2023-02-02T13:46:14.498Z,102440.28
2023-02-02T13:49:00.330Z,102434.28
2023-02-02T13:51:41.767Z,102429.16
2023-02-02T13:54:08.197Z,102432.97
2023-02-02T13:56:43.897Z,102434.56
2023-02-02T13:59:34.986Z,102438.88
2023-02-02T14:02:01.756Z,102434.88
2023-02-02T14:04:31.010Z,102441.06
2023-02-02T14:07:05.266Z,102446.47
2023-02-02T14:09:35.375Z,102434.06
2023-02-02T14:12:07.098Z,102440.28
2023-02-02T14:14:36.376Z,102442.69
2023-02-02T14:17:13.153Z,102441.38
2023-02-02T14:19:41.972Z,102448.38
2023-02-02T14:22:14.446Z,102444.28
2023-02-02T14:24:44.221Z,102451.28
2023-02-02T14:27:10.893Z,102447.78
2023-02-02T14:29:47.073Z,102451.88
2023-02-02T14:32:28.696Z,102447.06
2023-02-02T14:35:00.845Z,102456.22
2023-02-02T14:37:32.762Z,102455.97
2023-02-02T14:40:06.087Z,102449.22
2023-02-02T14:43:30.552Z,102445.72
2023-02-02T14:46:14.994Z,102453.31
2023-02-02T14:48:49.218Z,102466.00
2023-02-02T14:51:21.222Z,102460.63
2023-02-02T14:53:52.336Z,102462.28
2023-02-02T14:56:19.441Z,102471.19
2023-02-02T14:58:52.019Z,102472.28
2023-02-02T15:01:23.005Z,102475.78
2023-02-02T15:03:53.124Z,102476.03
2023-02-02T15:06:22.680Z,102476.34
2023-02-02T15:09:20.092Z,102486.03
2023-02-02T15:12:00.882Z,102480.13
2023-02-02T15:14:33.884Z,102480.41
2023-02-02T15:17:38.898Z,102473.91
2023-02-02T15:20:05.362Z,102476.09
2023-02-02T15:22:45.907Z,102476.63
2023-02-02T15:25:31.075Z,102480.41
2023-02-02T15:28:22.763Z,102482.31
2023-02-02T15:30:56.615Z,102479.59
2023-02-02T15:33:36.905Z,102480.41
2023-02-02T15:36:14.102Z,102477.72
2023-02-02T15:38:43.238Z,102472.91
2023-02-02T15:41:27.906Z,102481.50
2023-02-02T15:43:54.555Z,102483.91
2023-02-02T15:46:25.300Z,102478.50
2023-02-02T15:49:35.800Z,102480.41
2023-02-02T15:52:19.173Z,102482.81
2023-02-02T15:54:57.802Z,102485.53
2023-02-02T15:57:31.166Z,102483.63
2023-02-02T15:59:58.422Z,102489.03
2023-02-02T16:02:46.535Z,102486.03
2023-02-02T16:05:31.895Z,102488.47
2023-02-02T16:08:06.097Z,102484.69
2023-02-02T16:10:34.100Z,102494.69
2023-02-02T16:13:01.050Z,102493.88
2023-02-02T16:15:31.729Z,102504.94
2023-02-02T16:18:15.332Z,102510.09
2023-02-02T16:20:43.064Z,102518.19
2023-02-02T16:23:15.323Z,102515.50
2023-02-02T16:25:49.738Z,102528.44
2023-02-02T16:28:21.292Z,102527.09
2023-02-02T16:30:48.232Z,102531.69
2023-02-02T16:33:30.998Z,102541.13
2023-02-02T16:35:57.736Z,102539.50
2023-02-02T16:38:35.900Z,102532.50
2023-02-02T16:41:05.262Z,102538.41
2023-02-02T16:43:32.379Z,102542.22
2023-02-02T16:46:40.724Z,102537.91
2023-02-02T16:49:16.533Z,102539.50
2023-02-02T16:51:44.873Z,102546.81
2023-02-02T16:54:19.250Z,102548.69
2023-02-02T16:56:51.811Z,102548.69
2023-02-02T16:59:34.591Z,102551.41
2023-02-02T17:02:04.968Z,102546.25
2023-02-02T17:04:34.027Z,102556.25
2023-02-02T17:07:13.347Z,102559.50
2023-02-02T17:09:41.665Z,102556.00
2023-02-02T17:12:34.858Z,102561.91
2023-02-02T17:15:24.538Z,102561.91
2023-02-02T17:17:52.313Z,102558.41
2023-02-02T17:20:20.136Z,102562.72
2023-02-02T17:22:49.232Z,102560.81
2023-02-02T17:25:18.503Z,102557.31
2023-02-02T17:27:45.746Z,102568.34
2023-02-02T17:30:17.798Z,102567.53
2023-02-02T17:32:44.415Z,102577.53
2023-02-02T17:35:16.429Z,102567.53
2023-02-02T17:37:43.168Z,102564.56
2023-02-02T17:40:14.721Z,102572.66
2023-02-02T17:42:43.376Z,102564.84
2023-02-02T17:45:16.896Z,102573.47
2023-02-02T17:47:43.607Z,102576.16
2023-02-02T17:50:11.138Z,102572.38
2023-02-02T17:52:38.629Z,102573.47
2023-02-02T17:55:20.599Z,102575.06
2023-02-02T17:57:51.965Z,102571.03
2023-02-02T18:00:21.596Z,102569.41
2023-02-02T18:02:51.064Z,102572.91
2023-02-02T18:05:18.800Z,102560.75
2023-02-02T18:07:45.352Z,102560.22
2023-02-02T18:10:14.252Z,102560.22
2023-02-02T18:12:41.840Z,102560.22
2023-02-02T18:15:12.400Z,102556.44
2023-02-02T18:17:38.915Z,102562.91
2023-02-02T18:20:06.060Z,102556.72
2023-02-02T18:22:32.923Z,102556.44
2023-02-02T18:24:59.606Z,102554.25
2023-02-02T18:27:26.157Z,102545.63
2023-02-02T18:29:52.701Z,102552.34
2023-02-02T18:32:19.306Z,102548.03
2023-02-02T18:34:47.536Z,102546.13
2023-02-02T18:37:14.037Z,102543.72
2023-02-02T18:39:40.493Z,102551.81
2023-02-02T18:42:06.939Z,102542.91
2023-02-02T18:44:35.264Z,102544.75
2023-02-02T18:47:01.799Z,102549.09
2023-02-02T18:49:28.603Z,102552.06
2023-02-02T18:51:55.124Z,102547.44
2023-02-02T18:54:22.387Z,102559.06
2023-02-02T18:56:49.172Z,102549.34
2023-02-02T18:59:15.880Z,102537.75
2023-02-02T19:01:42.440Z,102537.22
2023-02-02T19:04:09.112Z,102535.31
2023-02-02T19:06:54.206Z,102536.41
2023-02-02T19:09:22.220Z,102540.44
2023-02-02T19:11:50.798Z,102541.03
2023-02-02T19:14:24.590Z,102536.19
2023-02-02T19:16:52.576Z,102540.25
2023-02-02T19:19:23.936Z,102538.66
2023-02-02T19:21:56.437Z,102529.00
2023-02-02T19:24:25.956Z,102532.50
2023-02-02T19:26:53.460Z,102517.94
2023-02-02T19:29:22.402Z,102528.50
2023-02-02T19:32:04.883Z,102539.03
2023-02-02T19:34:33.538Z,102532.31
2023-02-02T19:37:10.398Z,102533.38
2023-02-02T19:39:36.888Z,102528.03
2023-02-02T19:42:11.360Z,102525.31
2023-02-02T19:44:40.606Z,102534.00
2023-02-02T19:47:30.340Z,102522.94
2023-02-02T19:49:57.383Z,102542.63
2023-02-02T19:52:26.151Z,102547.00
2023-02-02T19:54:53.788Z,102531.84
2023-02-02T19:57:36.724Z,102532.66
2023-02-02T20:00:20.001Z,102534.00
2023-02-02T20:02:52.360Z,102546.41
2023-02-02T20:05:47.124Z,102538.53
2023-02-02T20:08:24.734Z,102541.75
2023-02-02T20:10:57.390Z,102538.53
2023-02-02T20:13:35.625Z,102556.84
2023-02-02T20:16:04.840Z,102559.03
2023-02-02T20:18:45.256Z,102558.72
2023-02-02T20:21:38.697Z,102564.09
2023-02-02T20:24:14.804Z,102563.56
2023-02-02T20:26:41.301Z,102557.88
2023-02-02T20:29:18.313Z,102561.41
2023-02-02T20:31:47.387Z,102564.63
2023-02-02T20:34:22.836Z,102568.13
2023-02-02T20:36:49.665Z,102568.63
2023-02-02T20:39:16.051Z,102565.13
2023-02-02T20:41:43.910Z,102549.22
2023-02-02T20:44:11.325Z,102557.59
2023-02-02T20:46:37.744Z,102559.72
2023-02-02T20:49:05.647Z,102551.91
2023-02-02T20:51:32.491Z,102558.13
2023-02-02T20:53:59.051Z,102552.22
2023-02-02T20:56:25.805Z,102560.53
2023-02-02T20:58:52.275Z,102562.16
2023-02-02T21:01:19.443Z,102560.25
2023-02-02T21:03:45.966Z,102566.47
2023-02-02T21:06:12.408Z,102562.41
2023-02-02T21:08:39.017Z,102564.81
2023-02-02T21:11:05.458Z,102566.13
2023-02-02T21:13:31.911Z,102562.06
2023-02-02T21:15:58.487Z,102569.88
2023-02-02T21:18:24.958Z,102562.59
2023-02-02T21:20:51.447Z,102574.47
2023-02-02T21:23:18.204Z,102560.69
2023-02-02T21:25:44.702Z,102569.31
2023-02-02T21:28:11.191Z,102560.94
2023-02-02T21:30:37.745Z,102569.03
2023-02-02T21:33:07.744Z,102573.63
2023-02-02T21:35:34.587Z,102574.44
2023-02-02T21:38:13.275Z,102562.81
2023-02-02T21:40:40.317Z,102574.44
2023-02-02T21:43:14.855Z,102575.25
2023-02-02T21:45:42.939Z,102580.34
2023-02-02T21:48:34.562Z,102573.56
2023-02-02T21:51:19.389Z,102559.00
2023-02-02T21:53:45.863Z,102559.00
2023-02-02T21:56:26.275Z,102553.00
2023-02-02T21:58:53.411Z,102561.94
2023-02-02T22:01:24.052Z,102563.78
2023-02-02T22:03:51.000Z,102566.50
2023-02-02T22:06:36.625Z,102548.88
2023-02-02T22:09:12.184Z,102555.38
2023-02-02T22:11:49.389Z,102549.69
2023-02-02T22:14:30.153Z,102541.28
2023-02-02T22:16:58.560Z,102547.50
2023-02-02T22:19:26.855Z,102545.59
2023-02-02T22:21:55.050Z,102546.69
2023-02-02T22:24:21.584Z,102526.69
2023-02-02T22:26:48.354Z,102525.09
2023-02-02T22:29:21.083Z,102528.88
2023-02-02T22:31:48.221Z,102536.41
2023-02-02T22:34:14.757Z,102535.31
2023-02-02T22:36:41.463Z,102525.59
2023-02-02T22:39:07.884Z,102528.84
2023-02-02T22:41:34.362Z,102530.16
2023-02-02T22:44:00.817Z,102543.66
2023-02-02T22:46:27.329Z,102545.78
2023-02-02T22:48:53.922Z,102542.50
2023-02-02T22:51:20.422Z,102526.56
2023-02-02T22:53:47.200Z,102514.16
2023-02-02T22:56:13.940Z,102506.03
2023-02-02T22:58:40.377Z,102501.16
2023-02-02T23:01:06.895Z,102498.19
2023-02-02T23:03:33.435Z,102481.69
2023-02-02T23:05:59.878Z,102478.97
2023-02-02T23:08:26.345Z,102471.16
2023-02-02T23:10:52.863Z,102473.06
2023-02-02T23:13:20.246Z,102451.19
2023-02-02T23:15:46.711Z,102451.19
2023-02-02T23:18:13.235Z,102453.09
2023-02-02T23:20:39.683Z,102473.06
2023-02-02T23:23:06.120Z,102463.56
2023-02-02T23:25:32.568Z,102463.25
2023-02-02T23:27:59.152Z,102470.28
2023-02-02T23:30:25.964Z,102467.56
2023-02-02T23:32:53.101Z,102464.56
2023-02-02T23:35:19.617Z,102469.97
2023-02-02T23:37:46.126Z,102475.09
2023-02-02T23:40:13.035Z,102473.44
2023-02-02T23:42:39.586Z,102474.53
2023-02-02T23:45:06.557Z,102472.38
2023-02-02T23:47:34.427Z,102471.28
2023-02-02T23:50:04.204Z,102484.84
2023-02-02T23:52:32.632Z,102476.13
2023-02-02T23:55:01.316Z,102471.56
2023-02-02T23:57:27.878Z,102484.25
2023-02-02T23:59:54.361Z,102494.81
